createdAt,value
2023-05-15T00:00:37.481Z,24.75
2023-05-15T00:05:40.658Z,23.27
2023-05-15T00:10:57.468Z,20.90
2023-05-15T00:16:04.575Z,20.95
2023-05-15T00:21:07.711Z,24.98
2023-05-15T00:26:15.658Z,22.80
2023-05-15T00:31:18.838Z,26.88
2023-05-15T00:36:24.285Z,22.10
2023-05-15T00:41:32.098Z,24.38
2023-05-15T00:46:36.561Z,26.15
2023-05-15T00:51:41.532Z,27.10
2023-05-15T00:56:47.201Z,18.20
2023-05-15T01:01:53.011Z,22.48
2023-05-15T01:06:56.904Z,18.30
2023-05-15T01:12:02.099Z,22.00
2023-05-15T01:17:05.250Z,21.83
2023-05-15T01:22:29.032Z,25.75
2023-05-15T01:27:37.968Z,24.05
2023-05-15T01:32:44.519Z,26.70
2023-05-15T01:37:50.368Z,23.05
2023-05-15T01:42:55.978Z,22.25
2023-05-15T01:48:00.643Z,23.35
2023-05-15T01:53:04.286Z,19.85
2023-05-15T01:58:09.512Z,24.98
2023-05-15T02:03:12.798Z,22.40
2023-05-15T02:08:17.393Z,25.65
2023-05-15T02:13:22.928Z,21.55
2023-05-15T02:18:26.174Z,23.73
2023-05-15T02:23:29.390Z,19.88
2023-05-15T02:28:38.270Z,22.35
2023-05-15T02:33:44.407Z,20.52
2023-05-15T02:38:48.458Z,19.60
2023-05-15T02:43:55.187Z,20.75
2023-05-15T02:48:58.446Z,21.23
2023-05-15T02:54:02.022Z,23.20
2023-05-15T02:59:06.799Z,21.83
2023-05-15T03:04:10.059Z,25.17
2023-05-15T03:09:13.291Z,26.25
2023-05-15T03:14:17.836Z,24.85
2023-05-15T03:19:20.980Z,34.58
2023-05-15T03:24:24.113Z,33.58
2023-05-15T03:29:28.647Z,39.35
2023-05-15T03:34:32.288Z,46.28
2023-05-15T03:39:35.681Z,46.92
2023-05-15T03:44:40.141Z,43.03
2023-05-15T03:49:43.244Z,42.13
2023-05-15T03:54:46.319Z,42.75
2023-05-15T03:59:50.818Z,43.00
2023-05-15T04:04:54.026Z,43.90
2023-05-15T04:09:57.298Z,40.63
2023-05-15T04:15:14.536Z,45.83
2023-05-15T04:20:18.255Z,47.53
2023-05-15T04:25:21.359Z,45.95
2023-05-15T04:30:25.851Z,39.90
2023-05-15T04:35:29.065Z,37.35
2023-05-15T04:40:32.401Z,39.15
2023-05-15T04:45:36.901Z,39.47
2023-05-15T04:50:40.059Z,39.65
2023-05-15T04:55:43.186Z,37.28
2023-05-15T05:00:47.662Z,38.63
2023-05-15T05:05:50.788Z,37.97
2023-05-15T05:10:56.498Z,40.30
2023-05-15T05:16:01.056Z,37.67
2023-05-15T05:21:04.768Z,38.92
2023-05-15T05:26:07.871Z,36.60
2023-05-15T05:31:12.423Z,35.15
2023-05-15T05:36:15.586Z,33.90
2023-05-15T05:41:18.788Z,32.53
2023-05-15T05:46:23.396Z,29.45
2023-05-15T05:51:26.624Z,30.48
2023-05-15T05:56:29.870Z,28.73
2023-05-15T06:01:34.493Z,31.23
2023-05-15T06:06:37.631Z,28.48
2023-05-15T06:11:40.754Z,29.88
2023-05-15T06:16:45.285Z,26.30
2023-05-15T06:21:48.617Z,28.90
2023-05-15T06:26:52.462Z,30.40
2023-05-15T06:31:57.153Z,25.38
2023-05-15T06:37:00.285Z,25.67
2023-05-15T06:42:03.514Z,25.33
2023-05-15T06:47:08.441Z,26.33
2023-05-15T06:52:11.734Z,26.50
2023-05-15T06:57:14.793Z,20.80
2023-05-15T07:02:19.347Z,24.35
2023-05-15T07:07:22.435Z,26.48
2023-05-15T07:12:25.900Z,28.30
2023-05-15T07:17:31.312Z,26.08
2023-05-15T07:22:41.556Z,23.13
2023-05-15T07:27:51.474Z,19.23
2023-05-15T07:32:56.051Z,23.40
2023-05-15T07:37:59.291Z,25.80
2023-05-15T07:43:02.520Z,20.75
2023-05-15T07:48:15.870Z,25.48
2023-05-15T07:53:19.753Z,23.02
2023-05-15T07:58:23.359Z,24.60
2023-05-15T08:03:27.947Z,25.30
2023-05-15T08:08:31.298Z,22.13
2023-05-15T08:13:34.382Z,22.10
2023-05-15T08:18:38.924Z,15.15
2023-05-15T08:23:42.132Z,17.23
2023-05-15T08:28:45.278Z,18.80
2023-05-15T08:33:49.801Z,20.95
2023-05-15T08:38:52.935Z,23.77
2023-05-15T08:43:56.781Z,23.50
2023-05-15T08:49:03.065Z,24.33
2023-05-15T08:54:06.276Z,24.00
2023-05-15T08:59:09.636Z,28.30
2023-05-15T09:04:14.396Z,24.48
2023-05-15T09:09:19.537Z,21.40
2023-05-15T09:14:22.685Z,21.95
2023-05-15T09:19:27.964Z,25.65
2023-05-15T09:24:31.632Z,23.70
2023-05-15T09:29:35.650Z,23.20
2023-05-15T09:34:41.105Z,27.80
2023-05-15T09:39:44.804Z,27.85
2023-05-15T09:44:48.061Z,29.23
2023-05-15T09:49:53.650Z,25.60
2023-05-15T09:54:57.323Z,31.30
2023-05-15T10:00:02.527Z,27.92
2023-05-15T10:05:16.533Z,27.88
2023-05-15T10:10:19.758Z,28.63
2023-05-15T10:15:23.746Z,32.55
2023-05-15T10:20:28.364Z,32.90
2023-05-15T10:25:35.203Z,35.22
2023-05-15T10:30:38.695Z,32.63
2023-05-15T10:35:43.598Z,26.35
2023-05-15T10:40:47.902Z,30.10
2023-05-15T10:45:51.969Z,34.60
2023-05-15T10:50:56.408Z,35.28
2023-05-15T10:55:59.835Z,33.45
2023-05-15T11:01:03.080Z,32.83
2023-05-15T11:06:11.552Z,30.00
2023-05-15T11:11:29.546Z,28.40
2023-05-15T11:16:51.427Z,29.55
2023-05-15T11:21:59.352Z,25.00
2023-05-15T11:27:03.161Z,25.48
2023-05-15T11:32:27.704Z,16.60
2023-05-15T11:37:32.291Z,16.92
2023-05-15T11:42:35.464Z,26.17
2023-05-15T11:47:38.622Z,23.75
2023-05-15T11:52:43.477Z,41.85
2023-05-15T11:57:47.054Z,48.78
2023-05-15T12:02:50.311Z,93.53
2023-05-15T12:07:54.925Z,31.67
2023-05-15T12:12:59.720Z,26.27
2023-05-15T12:18:04.634Z,44.75
2023-05-15T12:23:09.414Z,31.05
2023-05-15T12:28:12.983Z,35.92
2023-05-15T12:33:16.292Z,42.03
2023-05-15T12:38:22.003Z,40.30
2023-05-15T12:43:25.573Z,38.92
2023-05-15T12:48:32.859Z,40.72
2023-05-15T12:53:39.899Z,38.42
2023-05-15T12:58:43.343Z,36.45
2023-05-15T13:03:46.589Z,37.70
2023-05-15T13:08:51.172Z,36.42
2023-05-15T13:13:55.047Z,35.80
2023-05-15T13:18:58.768Z,31.40
2023-05-15T13:24:03.527Z,30.55
2023-05-15T13:29:06.652Z,32.53
2023-05-15T13:34:09.814Z,32.17
2023-05-15T13:39:14.353Z,31.17
2023-05-15T13:44:17.444Z,28.70
2023-05-15T13:49:20.504Z,24.75
2023-05-15T13:54:25.014Z,27.80
2023-05-15T13:59:28.667Z,26.27
2023-05-15T14:04:31.816Z,22.02
2023-05-15T14:09:36.403Z,21.38
2023-05-15T14:14:39.518Z,23.52
2023-05-15T14:19:42.633Z,19.13
2023-05-15T14:24:47.099Z,18.55
2023-05-15T14:29:51.248Z,19.75
2023-05-15T14:34:54.396Z,16.42
2023-05-15T14:39:58.963Z,18.08
2023-05-15T14:45:02.162Z,17.95
2023-05-15T14:50:05.617Z,18.10
2023-05-15T14:55:10.749Z,16.42
2023-05-15T15:00:14.699Z,23.27
2023-05-15T15:05:18.668Z,28.67
2023-05-15T15:10:23.287Z,28.02
2023-05-15T15:15:26.820Z,22.88
2023-05-15T15:20:30.285Z,23.75
2023-05-15T15:25:35.843Z,21.30
2023-05-15T15:30:38.973Z,21.33
2023-05-15T15:35:42.117Z,17.83
2023-05-15T15:40:46.638Z,19.10
2023-05-15T15:45:49.824Z,17.75
2023-05-15T15:50:53.309Z,20.17
2023-05-15T15:55:57.869Z,15.60
2023-05-15T16:01:01.261Z,13.70
2023-05-15T16:06:04.580Z,15.65
2023-05-15T16:11:09.073Z,16.77
2023-05-15T16:16:12.233Z,14.80
2023-05-15T16:21:15.575Z,19.48
2023-05-15T16:26:20.565Z,19.52
2023-05-15T16:31:23.759Z,17.55
2023-05-15T16:36:27.191Z,15.88
2023-05-15T16:41:31.666Z,22.95
2023-05-15T16:46:34.893Z,18.35
2023-05-15T16:51:38.009Z,24.10
2023-05-15T16:56:42.494Z,18.90
2023-05-15T17:01:45.679Z,14.18
2023-05-15T17:06:48.958Z,15.85
2023-05-15T17:11:53.503Z,15.43
2023-05-15T17:16:56.674Z,10.70
2023-05-15T17:21:59.772Z,10.02
2023-05-15T17:27:04.403Z,11.45
2023-05-15T17:32:07.844Z,10.73
2023-05-15T17:37:11.556Z,12.90
2023-05-15T17:42:16.044Z,10.45
2023-05-15T17:47:19.201Z,9.48
2023-05-15T17:52:22.324Z,9.10
2023-05-15T17:57:27.002Z,9.80
2023-05-15T18:02:30.121Z,9.60
2023-05-15T18:07:33.249Z,8.65
2023-05-15T18:12:37.811Z,7.80
2023-05-15T18:17:40.961Z,8.70
2023-05-15T18:22:45.966Z,9.00
2023-05-15T18:27:50.426Z,8.77
2023-05-15T18:32:53.679Z,8.80
2023-05-15T18:37:56.797Z,10.40
2023-05-15T18:43:01.388Z,7.78
2023-05-15T18:48:04.744Z,9.25
2023-05-15T18:53:07.963Z,8.73
2023-05-15T18:58:12.604Z,9.20
2023-05-15T19:03:15.928Z,8.55
2023-05-15T19:08:19.373Z,11.27
2023-05-15T19:13:24.090Z,12.43
2023-05-15T19:18:27.233Z,14.68
2023-05-15T19:23:30.378Z,12.50
2023-05-15T19:28:35.226Z,11.13
2023-05-15T19:33:38.379Z,13.63
2023-05-15T19:38:41.593Z,11.65
2023-05-15T19:43:46.979Z,9.07
2023-05-15T19:48:50.260Z,12.70
2023-05-15T19:53:53.428Z,9.60
2023-05-15T19:58:58.119Z,11.25
2023-05-15T20:04:01.312Z,12.55
2023-05-15T20:09:05.141Z,9.23
2023-05-15T20:14:09.615Z,8.00
2023-05-15T20:19:12.910Z,9.60
2023-05-15T20:24:17.505Z,8.93
2023-05-15T20:29:21.999Z,8.80
2023-05-15T20:34:25.098Z,9.95
2023-05-15T20:39:28.254Z,12.27
2023-05-15T20:44:36.312Z,8.35
2023-05-15T20:49:39.462Z,7.40
2023-05-15T20:54:42.555Z,9.65
2023-05-15T20:59:47.021Z,4.75
2023-05-15T21:04:50.151Z,4.88
2023-05-15T21:09:53.307Z,5.63
2023-05-15T21:14:57.919Z,5.18
2023-05-15T21:20:02.022Z,5.20
2023-05-15T21:25:05.386Z,8.43
2023-05-15T21:30:11.100Z,12.15
2023-05-15T21:35:14.261Z,8.32
2023-05-15T21:40:19.150Z,7.20
2023-05-15T21:45:23.725Z,10.50
2023-05-15T21:50:27.529Z,8.43
2023-05-15T21:55:30.864Z,6.07
2023-05-15T22:00:35.528Z,16.50
2023-05-15T22:05:38.667Z,12.88
2023-05-15T22:10:41.938Z,7.63
2023-05-15T22:15:46.624Z,10.90
2023-05-15T22:20:50.478Z,14.48
2023-05-15T22:25:53.603Z,7.78
2023-05-15T22:30:58.066Z,16.38
2023-05-15T22:36:01.205Z,13.75
2023-05-15T22:41:04.536Z,13.77
2023-05-15T22:46:09.129Z,12.65
2023-05-15T22:51:12.224Z,18.58
2023-05-15T22:56:15.514Z,14.02
2023-05-15T23:01:20.128Z,15.35
2023-05-15T23:06:23.290Z,17.95
2023-05-15T23:11:26.671Z,13.07
2023-05-15T23:16:32.009Z,13.45
2023-05-15T23:21:35.189Z,16.58
2023-05-15T23:26:38.320Z,13.23
2023-05-15T23:31:44.003Z,13.43
2023-05-15T23:36:47.213Z,19.08
2023-05-15T23:41:50.348Z,15.82
2023-05-15T23:46:54.975Z,16.45
2023-05-15T23:51:58.215Z,15.30
2023-05-15T23:57:01.742Z,12.60
